createdAt,value
2019-02-07T00:04:40.427Z,4.57
2019-02-07T00:09:45.488Z,4.90
2019-02-07T00:14:51.350Z,5.17
2019-02-07T00:19:56.201Z,4.77
2019-02-07T00:25:01.047Z,5.04
2019-02-07T00:30:13.026Z,5.18
2019-02-07T00:35:17.588Z,5.21
2019-02-07T00:40:22.143Z,4.65
2019-02-07T00:45:26.728Z,5.01
2019-02-07T00:50:31.412Z,5.10
2019-02-07T00:55:36.051Z,5.31
2019-02-07T01:00:40.614Z,4.66
2019-02-07T01:05:45.229Z,5.36
2019-02-07T01:10:50.865Z,5.54
2019-02-07T01:15:55.639Z,5.44
2019-02-07T01:21:00.274Z,5.37
2019-02-07T01:26:05.016Z,5.61
2019-02-07T01:31:11.194Z,5.65
2019-02-07T01:36:15.937Z,5.67
2019-02-07T01:41:20.680Z,5.17
2019-02-07T01:46:25.426Z,5.66
2019-02-07T01:51:30.171Z,5.55
2019-02-07T01:56:35.116Z,5.25
2019-02-07T02:01:39.859Z,5.48
2019-02-07T02:06:44.350Z,5.57
2019-02-07T02:11:49.036Z,5.56
2019-02-07T02:16:53.771Z,5.39
2019-02-07T02:21:58.623Z,5.26
2019-02-07T02:27:03.250Z,5.22
2019-02-07T02:32:08.118Z,5.77
2019-02-07T02:37:12.751Z,5.46
2019-02-07T02:42:17.374Z,5.21
2019-02-07T02:47:22.019Z,5.43
2019-02-07T02:52:26.772Z,5.36
2019-02-07T02:57:31.807Z,5.26
2019-02-07T03:02:37.993Z,5.01
2019-02-07T03:08:01.358Z,4.88
2019-02-07T03:13:13.593Z,4.52
2019-02-07T03:18:25.499Z,5.03
2019-02-07T03:23:48.168Z,5.47
2019-02-07T03:29:11.036Z,5.00
2019-02-07T03:34:17.613Z,5.20
2019-02-07T03:39:26.753Z,4.86
2019-02-07T03:44:48.816Z,5.41
2019-02-07T03:50:01.382Z,4.94
2019-02-07T03:55:20.616Z,5.31
2019-02-07T04:00:29.474Z,5.48
2019-02-07T04:05:44.858Z,5.22
2019-02-07T04:10:55.434Z,5.40
2019-02-07T04:16:12.962Z,4.76
2019-02-07T04:21:12.601Z,5.44
2019-02-07T04:26:22.161Z,5.14
2019-02-07T04:31:28.702Z,4.88
2019-02-07T04:36:38.606Z,4.86
2019-02-07T04:42:01.373Z,5.13
2019-02-07T04:47:10.727Z,5.23
2019-02-07T04:52:17.658Z,5.23
2019-02-07T04:57:42.385Z,4.92
2019-02-07T05:03:03.763Z,5.02
2019-02-07T05:08:12.855Z,5.02
2019-02-07T05:13:22.067Z,5.28
2019-02-07T05:18:40.674Z,5.58
2019-02-07T05:23:58.690Z,5.61
2019-02-07T05:29:08.011Z,5.33
2019-02-07T05:34:29.345Z,4.92
2019-02-07T05:39:38.396Z,4.77
2019-02-07T05:44:56.448Z,4.08
2019-02-07T05:50:05.382Z,4.72
2019-02-07T05:55:21.307Z,4.81
2019-02-07T06:00:36.790Z,5.05
2019-02-07T06:05:52.087Z,4.96
2019-02-07T06:11:01.433Z,4.96
2019-02-07T06:16:08.420Z,5.20
2019-02-07T06:21:20.851Z,5.56
2019-02-07T06:26:33.269Z,5.23
2019-02-07T06:31:42.522Z,5.25
2019-02-07T06:36:52.046Z,5.12
2019-02-07T06:42:04.403Z,5.55
2019-02-07T06:47:16.920Z,5.68
2019-02-07T06:52:38.357Z,5.52
2019-02-07T06:57:59.880Z,5.33
2019-02-07T07:03:21.120Z,5.28
2019-02-07T07:08:27.286Z,5.12
2019-02-07T07:13:39.587Z,5.23
2019-02-07T07:19:02.167Z,5.17
2019-02-07T07:24:14.600Z,5.46
2019-02-07T07:29:37.262Z,5.27
2019-02-07T07:34:52.544Z,4.87
2019-02-07T07:39:58.940Z,5.05
2019-02-07T07:45:08.285Z,5.09
2019-02-07T07:50:17.432Z,4.98
2019-02-07T07:55:41.835Z,5.10
2019-02-07T08:00:53.846Z,5.37
2019-02-07T08:06:16.616Z,5.09
2019-02-07T08:11:23.000Z,4.58
2019-02-07T08:16:32.230Z,4.87
2019-02-07T08:21:38.527Z,4.96
2019-02-07T08:27:00.465Z,5.48
2019-02-07T08:32:12.888Z,4.94
2019-02-07T08:37:19.166Z,5.04
2019-02-07T08:42:31.592Z,4.51
2019-02-07T08:47:58.623Z,5.24
2019-02-07T08:53:06.981Z,5.33
2019-02-07T08:58:22.271Z,5.18
2019-02-07T09:03:38.893Z,5.42
2019-02-07T09:08:50.906Z,5.35
2019-02-07T09:13:57.290Z,4.77
2019-02-07T09:19:12.567Z,5.19
2019-02-07T09:24:24.901Z,5.48
2019-02-07T09:29:37.013Z,5.00
2019-02-07T09:34:59.537Z,5.84
2019-02-07T09:40:23.873Z,5.86
2019-02-07T09:45:46.731Z,5.24
2019-02-07T09:51:11.043Z,5.42
2019-02-07T09:56:17.828Z,5.88
2019-02-07T10:01:24.003Z,5.73
2019-02-07T10:06:30.389Z,5.96
2019-02-07T10:11:36.885Z,5.64
2019-02-07T10:16:51.958Z,5.33
2019-02-07T10:21:58.240Z,5.82
2019-02-07T10:27:20.904Z,5.61
2019-02-07T10:32:39.567Z,5.80
2019-02-07T10:37:46.063Z,6.08
2019-02-07T10:43:09.030Z,5.67
2019-02-07T10:48:15.208Z,5.83
2019-02-07T10:53:27.313Z,5.67
2019-02-07T10:58:46.495Z,6.31
2019-02-07T11:03:53.040Z,6.31
2019-02-07T11:08:59.766Z,5.82
2019-02-07T11:14:08.628Z,4.92
2019-02-07T11:19:21.465Z,5.92
2019-02-07T11:24:24.034Z,6.17
2019-02-07T11:29:34.511Z,6.08
2019-02-07T11:34:50.213Z,6.20
2019-02-07T11:40:11.643Z,5.64
2019-02-07T11:45:30.927Z,6.31
2019-02-07T11:50:54.205Z,6.51
2019-02-07T11:56:03.350Z,6.80
2019-02-07T12:01:12.600Z,6.49
2019-02-07T12:06:18.979Z,5.24
2019-02-07T12:11:41.744Z,5.36
2019-02-07T12:17:00.413Z,6.20
2019-02-07T12:22:16.017Z,6.32
2019-02-07T12:27:25.732Z,6.25
2019-02-07T12:32:32.263Z,6.48
2019-02-07T12:37:38.687Z,6.48
2019-02-07T12:43:02.835Z,5.87
2019-02-07T12:48:25.705Z,6.61
2019-02-07T12:53:35.975Z,6.78
2019-02-07T12:58:59.253Z,6.67
2019-02-07T13:04:22.242Z,6.58
2019-02-07T13:09:37.512Z,6.39
2019-02-07T13:14:43.792Z,7.03
2019-02-07T13:20:04.140Z,6.76
2019-02-07T13:25:23.813Z,6.98
2019-02-07T13:30:30.274Z,6.81
2019-02-07T13:35:54.781Z,6.58
2019-02-07T13:41:16.535Z,6.40
2019-02-07T13:46:32.750Z,6.59
2019-02-07T13:51:48.749Z,6.35
2019-02-07T13:57:10.494Z,5.88
2019-02-07T14:02:19.626Z,5.59
2019-02-07T14:07:32.050Z,5.83
2019-02-07T14:12:47.243Z,5.61
2019-02-07T14:18:03.143Z,5.54
2019-02-07T14:23:15.057Z,4.99
2019-02-07T14:28:24.404Z,5.41
2019-02-07T14:33:45.944Z,5.71
2019-02-07T14:38:58.058Z,5.44
2019-02-07T14:44:20.413Z,5.48
2019-02-07T14:49:25.152Z,5.52
2019-02-07T14:54:30.306Z,5.49
2019-02-07T14:59:35.052Z,5.52
2019-02-07T15:04:39.896Z,5.91
2019-02-07T15:09:44.632Z,5.79
2019-02-07T15:14:49.383Z,5.83
2019-02-07T15:19:54.224Z,6.08
2019-02-07T15:24:59.097Z,6.18
2019-02-07T15:30:06.730Z,5.76
2019-02-07T15:35:33.130Z,5.94
2019-02-07T15:40:38.080Z,6.37
2019-02-07T15:45:43.031Z,6.48
2019-02-07T15:50:47.765Z,6.06
2019-02-07T15:55:52.515Z,6.39
2019-02-07T16:00:58.892Z,6.30
2019-02-07T16:06:06.233Z,6.27
2019-02-07T16:11:09.926Z,6.53
2019-02-07T16:16:15.171Z,6.47
2019-02-07T16:21:19.908Z,6.51
2019-02-07T16:26:25.683Z,6.47
2019-02-07T16:31:30.424Z,6.45
2019-02-07T16:36:35.163Z,5.61
2019-02-07T16:41:40.007Z,6.17
2019-02-07T16:46:44.930Z,6.48
2019-02-07T16:51:49.707Z,6.02
2019-02-07T16:56:54.558Z,6.16
2019-02-07T17:01:59.301Z,5.94
2019-02-07T17:07:04.105Z,6.22
2019-02-07T17:12:09.078Z,6.17
2019-02-07T17:17:14.744Z,6.32
2019-02-07T17:22:19.485Z,6.29
2019-02-07T17:27:24.640Z,6.15
2019-02-07T17:32:31.019Z,6.27
2019-02-07T17:37:36.212Z,5.98
2019-02-07T17:42:41.021Z,5.96
2019-02-07T17:47:45.760Z,6.04
2019-02-07T17:52:50.543Z,5.83
2019-02-07T17:57:56.260Z,4.42
2019-02-07T18:03:01.439Z,5.05
2019-02-07T18:08:06.286Z,4.60
2019-02-07T18:13:12.356Z,4.80
2019-02-07T18:18:16.977Z,4.90
2019-02-07T18:23:21.723Z,5.26
2019-02-07T18:28:26.874Z,5.43
2019-02-07T18:33:31.930Z,5.32
2019-02-07T18:38:38.209Z,5.54
2019-02-07T18:43:42.843Z,5.39
2019-02-07T18:48:47.493Z,5.32
2019-02-07T18:53:53.118Z,5.32
2019-02-07T18:58:58.472Z,6.09
2019-02-07T19:04:05.203Z,6.32
2019-02-07T19:09:10.791Z,6.11
2019-02-07T19:14:16.103Z,6.33
2019-02-07T19:19:22.778Z,6.32
2019-02-07T19:24:27.990Z,6.45
2019-02-07T19:29:33.232Z,6.40
2019-02-07T19:34:39.087Z,6.20
2019-02-07T19:39:46.247Z,6.44
2019-02-07T19:44:52.358Z,6.39
2019-02-07T19:49:58.329Z,6.54
2019-02-07T19:55:06.303Z,6.44
2019-02-07T20:00:13.898Z,6.51
2019-02-07T20:05:19.902Z,6.53
2019-02-07T20:10:26.428Z,6.49
2019-02-07T20:15:33.506Z,6.48
2019-02-07T20:20:39.037Z,6.25
2019-02-07T20:25:43.761Z,6.20
2019-02-07T20:35:54.247Z,6.41
2019-02-07T20:41:00.003Z,6.44
2019-02-07T20:46:04.831Z,6.38
2019-02-07T20:51:09.672Z,6.06
2019-02-07T20:56:14.844Z,6.29
2019-02-07T21:01:22.322Z,6.49
2019-02-07T21:06:28.313Z,6.20
2019-02-07T21:11:35.021Z,5.93
2019-02-07T21:16:43.892Z,5.65
2019-02-07T21:21:50.386Z,5.87
2019-02-07T21:26:55.058Z,6.11
2019-02-07T21:31:59.910Z,6.19
2019-02-07T21:37:06.100Z,6.20
2019-02-07T21:42:11.641Z,6.18
2019-02-07T21:47:18.433Z,6.29
2019-02-07T21:52:23.379Z,6.24
2019-02-07T21:57:28.332Z,6.36
2019-02-07T22:02:34.094Z,6.31
2019-02-07T22:07:39.044Z,6.04
2019-02-07T22:12:45.614Z,6.17
2019-02-07T22:17:50.484Z,6.20
2019-02-07T22:22:55.304Z,6.14
2019-02-07T22:28:01.136Z,6.28
2019-02-07T22:33:07.990Z,5.69
2019-02-07T22:38:12.754Z,5.92
2019-02-07T22:43:17.672Z,6.34
2019-02-07T22:48:22.510Z,6.37
2019-02-07T22:53:27.258Z,6.12
2019-02-07T22:58:34.192Z,6.16
2019-02-07T23:03:38.896Z,5.73
2019-02-07T23:08:45.579Z,6.22
2019-02-07T23:13:50.451Z,5.73
2019-02-07T23:18:56.208Z,5.47
2019-02-07T23:24:02.676Z,5.26
2019-02-07T23:29:07.931Z,5.64
2019-02-07T23:34:12.775Z,5.79
2019-02-07T23:39:17.427Z,5.55
2019-02-07T23:44:22.572Z,6.04
2019-02-07T23:49:27.924Z,6.17
2019-02-07T23:54:32.561Z,6.11
2019-02-07T23:59:37.720Z,5.91
